METAR AND TAF INFORMATION
METAR FOR GCRR
ADDS - METARS form results

(1540 UTC 24 September 2022)
Data provider http://aviationweather.gov/metar/data/
 
METAR text: GCRR 241530Z 04015KT 9999 FEW017 SCT025 24/20 Q1015
Conditions at: GCRR (ARRECIFE/LANZARO, ES) observed 1530 UTC 24 September 2022
Temperature: 24.0°C (75°F)
Dewpoint: 20.0°C (68°F) [RH = 78%]
Pressure (altimeter): 29.97 inches Hg (1015.0 mb)
Winds: from the NE (40 degrees) at 17 MPH (15 knots; 7.7 m/s)
Visibility: 6 or more miles (10+ km)
Ceiling: at least 12,000 feet AGL
Clouds: few clouds at 1700 feet AGL
scattered clouds at 2500 feet AGL
Weather: no significant weather observed at this time

METAR text: GCRR 241500Z 06013KT 9999 -RA FEW017 SCT025 24/21 Q1016
Conditions at: GCRR (ARRECIFE/LANZARO, ES) observed 1500 UTC 24 September 2022
Temperature: 24.0°C (75°F)
Dewpoint: 21.0°C (70°F) [RH = 83%]
Pressure (altimeter): 30.00 inches Hg (1016.0 mb)
Winds: from the ENE (60 degrees) at 15 MPH (13 knots; 6.7 m/s)
Visibility: 6 or more miles (10+ km)
Ceiling: at least 12,000 feet AGL
Clouds: few clouds at 1700 feet AGL
scattered clouds at 2500 feet AGL
Weather: -RA  (light rain)

Forecast for: GCRR (ARRECIFE/LANZARO, ES)
Text: TAF GCRR 241400Z 2415/2515 04010KT 9999 SCT025 TX27/2514Z TN21/2506Z
Forecast period: 1500 UTC 24 September 2022 to 1500 UTC 25 September 2022
Forecast type: FROM: standard forecast or significant change
Winds: from the NE (40 degrees) at 12 MPH (10 knots; 5.1 m/s)
Visibility: 6 or more miles (10+ km)
Ceiling: at least 12,000 feet AGL
Clouds: scattered clouds at 2500 feet AGL
Weather: no significant weather forecast for this period
Text: PROB40
Forecast period: 1500 UTC 24 September 2022 to 0300 UTC 25 September 2022
Forecast type: TEMPORARY: The following changes expected for less than half the time period
Visibility: missing
Ceiling: unknown
Clouds: missing
Weather: RA  (moderate rain)
Text: TEMPO 2415/2503 RA
Forecast period: 0300 to 1500 UTC 25 September 2022
Forecast type: TEMPORARY: The following changes expected for less than half the time period
Visibility: 2.49 miles (4.01 km)
Ceiling: at least 12,000 feet AGL
Clouds: scattered clouds at 3000 feet AGL
Weather: RA  (moderate rain)

 AIRPORT MAP

 RUNWAY INFORMATION
Runway 03 Runway length 7874 ft Runway width 148 ft
Runway elevation 18 ft Runway displaced threshold 0 ft Runway heading 27
Runway 21 Runway length 7874 ft Runway width 148 ft
Runway elevation 47 ft Runway displaced threshold 0 ft Runway heading 207

 AIRPORT FREQUENCIES
Type APP Name CANARIAS A Frequency 129.3 MHZ
Type ATIS Name ATIS Frequency 118.625 MHZ
Type GND Name GND Frequency 121.8 MHZ
Type TWR Name TWR Frequency 120.7 MHZ

 AIRPORT NEAR NAVIGATION AIDS
Type VOR-DME Name Lanzarote Frequency 113700 KHZ
Type NDB Name Lanzarote Frequency 310 KHZ
Type VOR-DME Name Lanzarote Frequency 115200 KHZ
Type TACAN Name Lanzarote Frequency 114700 KHZ